createdAt,value
2018-08-30T00:02:25.585Z,15.67
2018-08-30T00:04:53.710Z,16.63
2018-08-30T00:07:21.902Z,16.37
2018-08-30T00:09:50.028Z,17.40
2018-08-30T00:12:18.628Z,16.60
2018-08-30T00:14:46.781Z,16.57
2018-08-30T00:17:14.926Z,18.57
2018-08-30T00:19:43.057Z,17.73
2018-08-30T00:22:11.200Z,17.87
2018-08-30T00:24:39.325Z,19.73
2018-08-30T00:27:07.585Z,18.93
2018-08-30T00:29:36.449Z,19.50
2018-08-30T00:32:04.589Z,18.17
2018-08-30T00:34:32.714Z,19.17
2018-08-30T00:37:00.857Z,17.87
2018-08-30T00:39:28.999Z,17.37
2018-08-30T00:41:57.146Z,18.10
2018-08-30T00:44:25.282Z,19.60
2018-08-30T00:46:53.412Z,19.50
2018-08-30T00:49:21.540Z,18.60
2018-08-30T00:51:49.690Z,19.87
2018-08-30T00:54:17.837Z,19.10
2018-08-30T00:56:45.982Z,17.20
2018-08-30T00:59:14.122Z,16.50
2018-08-30T01:01:42.241Z,17.13
2018-08-30T01:04:10.709Z,19.13
2018-08-30T01:06:38.825Z,19.37
2018-08-30T01:09:07.033Z,18.97
2018-08-30T01:11:35.149Z,20.53
2018-08-30T01:14:03.268Z,19.97
2018-08-30T01:16:32.539Z,17.00
2018-08-30T01:19:00.675Z,20.03
2018-08-30T01:21:28.805Z,19.60
2018-08-30T01:23:56.942Z,19.70
2018-08-30T01:26:25.095Z,20.23
2018-08-30T01:28:53.229Z,20.60
2018-08-30T01:31:21.346Z,20.10
2018-08-30T01:33:49.474Z,20.97
2018-08-30T01:36:17.586Z,22.40
2018-08-30T01:38:45.713Z,20.90
2018-08-30T01:41:13.842Z,20.53
2018-08-30T01:43:41.969Z,20.47
2018-08-30T01:46:10.902Z,23.90
2018-08-30T01:48:39.033Z,23.70
2018-08-30T01:51:07.153Z,23.93
2018-08-30T01:53:35.277Z,24.63
2018-08-30T01:56:03.389Z,26.90
2018-08-30T01:58:31.504Z,27.87
2018-08-30T02:00:59.626Z,28.57
2018-08-30T02:03:27.790Z,30.40
2018-08-30T02:05:55.912Z,31.40
2018-08-30T02:08:24.046Z,31.10
2018-08-30T02:10:52.857Z,32.83
2018-08-30T02:13:20.972Z,37.23
2018-08-30T02:15:49.137Z,37.20
2018-08-30T02:18:17.258Z,33.23
2018-08-30T02:20:45.382Z,33.33
2018-08-30T02:23:13.522Z,38.87
2018-08-30T02:25:41.637Z,39.27
2018-08-30T02:28:09.746Z,40.80
2018-08-30T02:30:37.865Z,44.80
2018-08-30T02:33:06.013Z,49.87
2018-08-30T02:35:34.137Z,44.40
2018-08-30T02:38:02.245Z,46.00
2018-08-30T02:40:30.378Z,51.10
2018-08-30T02:42:58.491Z,58.70
2018-08-30T02:45:26.619Z,65.67
2018-08-30T02:47:54.724Z,73.90
2018-08-30T02:50:22.860Z,83.30
2018-08-30T02:52:50.964Z,61.57
2018-08-30T02:55:19.088Z,52.33
2018-08-30T02:57:47.210Z,65.37
2018-08-30T03:00:17.497Z,67.87
2018-08-30T03:02:45.617Z,62.27
2018-08-30T03:05:13.766Z,101.93
2018-08-30T03:07:41.882Z,60.00
2018-08-30T03:10:10.048Z,82.23
2018-08-30T03:12:38.145Z,91.50
2018-08-30T03:15:09.292Z,107.47
2018-08-30T03:17:37.426Z,65.93
2018-08-30T03:20:07.372Z,78.20
2018-08-30T03:22:36.156Z,50.87
2018-08-30T03:25:04.446Z,55.00
2018-08-30T03:27:32.593Z,73.90
2018-08-30T03:30:00.846Z,50.73
2018-08-30T03:32:28.973Z,51.30
2018-08-30T03:34:57.349Z,50.23
2018-08-30T03:37:25.465Z,50.17
2018-08-30T03:39:53.596Z,51.90
2018-08-30T03:42:21.724Z,50.83
2018-08-30T03:44:49.888Z,60.43
2018-08-30T03:47:17.993Z,53.93
2018-08-30T03:49:46.136Z,57.53
2018-08-30T03:52:14.254Z,59.73
2018-08-30T03:54:42.373Z,71.13
2018-08-30T03:57:10.503Z,61.00
2018-08-30T03:59:38.637Z,60.63
2018-08-30T04:02:06.763Z,53.53
2018-08-30T04:04:34.873Z,57.30
2018-08-30T04:07:03.034Z,51.27
2018-08-30T04:09:31.173Z,50.57
2018-08-30T04:11:59.318Z,51.77
2018-08-30T04:14:27.457Z,50.90
2018-08-30T04:16:55.640Z,51.97
2018-08-30T04:19:23.775Z,57.53
2018-08-30T04:21:52.015Z,75.63
2018-08-30T04:24:20.140Z,47.70
2018-08-30T04:26:48.290Z,52.17
2018-08-30T04:29:17.084Z,61.20
2018-08-30T04:31:45.253Z,69.53
2018-08-30T04:34:13.401Z,62.73
2018-08-30T04:36:41.561Z,81.63
2018-08-30T04:39:09.713Z,122.73
2018-08-30T04:41:37.969Z,70.10
2018-08-30T04:44:06.203Z,68.53
2018-08-30T04:46:34.394Z,87.33
2018-08-30T04:49:02.550Z,72.17
2018-08-30T04:51:30.845Z,80.50
2018-08-30T04:53:59.009Z,93.97
2018-08-30T04:56:27.161Z,86.27
2018-08-30T04:58:55.316Z,130.80
2018-08-30T05:01:23.584Z,131.17
2018-08-30T05:03:51.805Z,74.13
2018-08-30T05:06:19.997Z,36.07
2018-08-30T05:08:48.138Z,33.50
2018-08-30T05:11:16.309Z,23.93
2018-08-30T05:13:51.330Z,20.63
2018-08-30T05:16:19.629Z,20.90
2018-08-30T05:18:47.918Z,23.40
2018-08-30T05:21:18.105Z,24.00
2018-08-30T05:23:46.248Z,22.07
2018-08-30T05:26:14.413Z,23.70
2018-08-30T05:28:42.556Z,18.93
2018-08-30T05:31:10.728Z,22.60
2018-08-30T05:33:38.888Z,15.47
2018-08-30T05:36:07.046Z,14.90
2018-08-30T05:38:35.210Z,16.20
2018-08-30T05:41:03.382Z,13.20
2018-08-30T05:43:31.566Z,15.07
2018-08-30T05:45:59.754Z,15.67
2018-08-30T05:48:27.889Z,20.23
2018-08-30T05:50:56.119Z,18.17
2018-08-30T05:53:24.639Z,20.70
2018-08-30T05:55:52.769Z,22.73
2018-08-30T05:58:21.006Z,24.47
2018-08-30T06:00:49.337Z,24.33
2018-08-30T06:03:17.495Z,28.20
2018-08-30T06:05:45.662Z,25.33
2018-08-30T06:08:13.811Z,17.93
2018-08-30T06:10:41.969Z,17.43
2018-08-30T06:13:10.129Z,22.77
2018-08-30T06:15:38.284Z,26.03
2018-08-30T06:18:06.461Z,17.53
2018-08-30T06:20:34.615Z,15.30
2018-08-30T06:23:02.786Z,15.10
2018-08-30T06:25:30.929Z,12.10
2018-08-30T06:27:59.074Z,10.10
2018-08-30T06:30:27.232Z,10.20
2018-08-30T06:32:55.484Z,7.77
2018-08-30T06:35:23.509Z,6.77
2018-08-30T06:37:51.661Z,8.27
2018-08-30T06:40:19.863Z,7.10
2018-08-30T06:42:48.011Z,5.83
2018-08-30T06:45:16.137Z,7.40
2018-08-30T06:47:44.297Z,5.10
2018-08-30T06:50:13.428Z,5.10
2018-08-30T06:52:41.576Z,5.70
2018-08-30T06:55:09.762Z,4.30
2018-08-30T06:57:37.904Z,4.60
2018-08-30T07:00:06.101Z,4.80
2018-08-30T07:02:34.876Z,4.90
2018-08-30T07:05:06.661Z,5.63
2018-08-30T07:07:34.830Z,6.83
2018-08-30T07:10:02.974Z,6.80
2018-08-30T07:12:31.132Z,6.87
2018-08-30T07:14:59.297Z,7.10
2018-08-30T07:17:27.489Z,8.37
2018-08-30T07:19:55.634Z,8.00
2018-08-30T07:22:23.798Z,7.90
2018-08-30T07:24:53.045Z,8.57
2018-08-30T07:27:21.534Z,6.50
2018-08-30T07:29:49.731Z,6.07
2018-08-30T07:32:17.975Z,6.20
2018-08-30T07:34:46.303Z,7.10
2018-08-30T07:37:14.758Z,6.17
2018-08-30T07:39:42.941Z,6.30
2018-08-30T07:42:11.418Z,8.03
2018-08-30T07:44:39.667Z,7.57
2018-08-30T07:47:07.839Z,7.50
2018-08-30T07:49:35.962Z,9.60
2018-08-30T07:52:04.115Z,8.03
2018-08-30T07:54:32.304Z,8.80
2018-08-30T07:57:00.458Z,7.57
2018-08-30T07:59:28.682Z,9.20
2018-08-30T08:01:56.822Z,9.13
2018-08-30T08:04:24.987Z,13.43
2018-08-30T08:06:53.129Z,17.13
2018-08-30T08:09:21.592Z,20.10
2018-08-30T08:11:49.852Z,23.10
2018-08-30T08:14:17.982Z,22.97
2018-08-30T08:16:46.133Z,24.23
2018-08-30T08:19:17.807Z,21.13
2018-08-30T08:21:45.954Z,23.17
2018-08-30T08:24:14.106Z,22.43
2018-08-30T08:26:42.228Z,22.10
2018-08-30T08:29:10.400Z,17.00
2018-08-30T08:31:38.541Z,19.03
2018-08-30T08:34:07.299Z,18.40
2018-08-30T08:36:35.463Z,19.63
2018-08-30T08:39:04.528Z,19.80
2018-08-30T08:41:32.670Z,22.80
2018-08-30T08:44:00.814Z,25.83
2018-08-30T08:46:28.969Z,26.27
2018-08-30T08:48:57.145Z,26.40
2018-08-30T08:51:25.286Z,30.03
2018-08-30T08:53:53.520Z,31.87
2018-08-30T08:56:23.354Z,33.00
2018-08-30T08:58:51.542Z,33.27
2018-08-30T09:01:19.730Z,32.47
2018-08-30T09:03:47.825Z,37.40
2018-08-30T09:06:15.980Z,32.83
2018-08-30T09:08:44.122Z,31.33
2018-08-30T09:11:12.291Z,32.40
2018-08-30T09:13:40.438Z,31.00
2018-08-30T09:16:08.675Z,33.33
2018-08-30T09:18:36.861Z,30.33
2018-08-30T09:21:08.514Z,28.87
2018-08-30T09:23:36.730Z,29.10
2018-08-30T09:26:04.920Z,31.60
2018-08-30T09:28:33.071Z,33.10
2018-08-30T09:31:01.290Z,34.20
2018-08-30T09:33:29.368Z,34.93
2018-08-30T09:35:57.537Z,37.43
2018-08-30T09:38:25.702Z,36.03
2018-08-30T09:40:56.897Z,37.17
2018-08-30T09:43:25.062Z,35.43
2018-08-30T09:45:53.222Z,33.40
2018-08-30T09:48:21.406Z,33.17
2018-08-30T09:50:49.554Z,32.00
2018-08-30T09:53:17.693Z,35.80
2018-08-30T09:55:46.684Z,34.07
2018-08-30T09:58:14.775Z,33.40
2018-08-30T10:00:48.860Z,34.50
2018-08-30T10:03:17.032Z,33.57
2018-08-30T10:05:45.224Z,33.47
2018-08-30T10:08:13.382Z,34.93
2018-08-30T10:10:41.590Z,33.00
2018-08-30T10:13:09.825Z,34.37
2018-08-30T10:15:38.017Z,40.57
2018-08-30T10:18:06.477Z,37.20
2018-08-30T10:20:35.085Z,36.33
2018-08-30T10:23:03.306Z,33.93
2018-08-30T10:25:31.563Z,33.00
2018-08-30T10:27:59.722Z,37.80
2018-08-30T10:30:27.902Z,37.07
2018-08-30T10:32:56.094Z,36.50
2018-08-30T10:35:24.879Z,33.93
2018-08-30T10:37:53.066Z,34.60
2018-08-30T10:40:21.287Z,33.47
2018-08-30T10:42:49.536Z,36.23
2018-08-30T10:45:18.320Z,36.20
2018-08-30T10:47:46.538Z,38.03
2018-08-30T10:50:14.758Z,35.07
2018-08-30T10:52:42.954Z,36.87
2018-08-30T10:55:11.169Z,36.80
2018-08-30T10:57:39.345Z,35.30
2018-08-30T11:00:07.571Z,35.67
2018-08-30T11:02:35.775Z,33.70
2018-08-30T11:05:04.053Z,34.90
2018-08-30T11:07:32.248Z,33.80
2018-08-30T11:10:00.583Z,33.73
2018-08-30T11:12:28.746Z,34.07
2018-08-30T11:14:56.942Z,33.73
2018-08-30T11:17:25.500Z,33.77
2018-08-30T11:19:53.640Z,33.20
2018-08-30T11:22:21.902Z,31.20
2018-08-30T11:24:50.058Z,29.23
2018-08-30T11:27:18.237Z,29.90
2018-08-30T11:29:46.396Z,33.57
2018-08-30T11:32:14.584Z,31.37
2018-08-30T11:34:42.858Z,30.73
2018-08-30T11:37:11.090Z,33.00
2018-08-30T11:39:39.252Z,34.00
2018-08-30T11:42:07.419Z,31.97
2018-08-30T11:44:35.584Z,31.40
2018-08-30T11:47:03.761Z,32.20
2018-08-30T11:49:31.929Z,31.70
2018-08-30T11:52:00.122Z,30.73
2018-08-30T11:54:28.288Z,30.27
2018-08-30T11:56:56.460Z,28.20
2018-08-30T11:59:24.638Z,29.40
2018-08-30T12:01:52.818Z,30.73
2018-08-30T12:04:21.962Z,30.50
2018-08-30T12:06:50.191Z,31.90
2018-08-30T12:09:18.338Z,34.23
2018-08-30T12:11:46.494Z,30.23
2018-08-30T12:14:14.633Z,31.47
2018-08-30T12:16:42.789Z,30.03
2018-08-30T12:19:10.941Z,28.50
2018-08-30T12:21:39.093Z,28.80
2018-08-30T12:24:07.230Z,26.27
2018-08-30T12:26:35.399Z,27.17
2018-08-30T12:29:03.573Z,28.73
2018-08-30T12:31:31.737Z,27.70
2018-08-30T12:33:59.933Z,26.10
2018-08-30T12:36:28.001Z,26.07
2018-08-30T12:38:56.191Z,25.30
2018-08-30T12:41:24.294Z,22.43
2018-08-30T12:43:52.598Z,21.70
2018-08-30T12:46:20.620Z,20.03
2018-08-30T12:48:48.782Z,20.97
2018-08-30T12:51:17.172Z,20.43
2018-08-30T12:53:45.206Z,21.50
2018-08-30T12:56:13.458Z,21.83
2018-08-30T12:58:41.578Z,19.20
2018-08-30T13:01:09.819Z,18.57
2018-08-30T13:03:37.941Z,19.10
2018-08-30T13:06:06.195Z,19.53
2018-08-30T13:08:34.434Z,18.57
2018-08-30T13:11:02.574Z,20.07
2018-08-30T13:13:30.546Z,17.80
2018-08-30T13:15:58.744Z,18.77
2018-08-30T13:18:26.880Z,19.63
2018-08-30T13:20:55.128Z,18.03
2018-08-30T13:23:23.218Z,17.87
2018-08-30T13:25:51.472Z,16.53
2018-08-30T13:28:19.651Z,16.23
2018-08-30T13:30:47.872Z,16.87
2018-08-30T13:33:19.903Z,16.30
2018-08-30T13:35:43.935Z,15.50
2018-08-30T13:38:12.245Z,15.90
2018-08-30T13:40:40.585Z,16.47
2018-08-30T13:43:08.546Z,16.87
2018-08-30T13:45:36.706Z,16.57
2018-08-30T13:48:05.883Z,16.07
2018-08-30T13:50:33.878Z,17.10
2018-08-30T13:53:02.105Z,15.83
2018-08-30T13:55:30.387Z,15.37
2018-08-30T13:57:58.730Z,15.33
2018-08-30T14:00:26.979Z,12.27
2018-08-30T14:02:54.712Z,13.13
2018-08-30T14:05:22.845Z,13.23
2018-08-30T14:07:50.988Z,13.73
2018-08-30T14:10:19.433Z,16.10
2018-08-30T14:12:47.526Z,12.10
2018-08-30T14:15:15.939Z,11.23
2018-08-30T14:17:43.657Z,10.90
2018-08-30T14:20:11.812Z,12.43
2018-08-30T14:22:39.986Z,11.27
2018-08-30T14:25:11.298Z,11.10
2018-08-30T14:27:39.428Z,10.87
2018-08-30T14:30:07.593Z,11.30
2018-08-30T14:32:36.694Z,12.73
2018-08-30T14:35:05.330Z,10.90
2018-08-30T14:37:33.462Z,11.53
2018-08-30T14:40:01.602Z,11.57
2018-08-30T14:42:30.797Z,9.97
2018-08-30T14:44:58.981Z,10.27
2018-08-30T14:47:27.306Z,10.40
2018-08-30T14:49:55.265Z,10.07
2018-08-30T14:52:23.413Z,9.60
2018-08-30T14:54:51.561Z,10.00
2018-08-30T14:57:19.708Z,9.90
2018-08-30T14:59:48.221Z,10.93
2018-08-30T15:02:16.363Z,10.57
2018-08-30T15:04:44.529Z,12.50
2018-08-30T15:07:13.008Z,11.27
2018-08-30T15:09:41.165Z,11.87
2018-08-30T15:12:09.319Z,12.60
2018-08-30T15:14:37.481Z,12.83
2018-08-30T15:17:05.667Z,13.10
2018-08-30T15:19:33.773Z,10.13
2018-08-30T15:22:01.917Z,11.00
2018-08-30T15:24:30.061Z,11.30
2018-08-30T15:26:58.306Z,11.53
2018-08-30T15:29:26.423Z,10.50
2018-08-30T15:31:54.530Z,9.90
2018-08-30T15:34:22.683Z,10.10
2018-08-30T15:36:50.950Z,11.47
2018-08-30T15:39:19.180Z,13.40
2018-08-30T15:41:47.310Z,9.60
2018-08-30T15:44:16.122Z,9.77
2018-08-30T15:46:44.264Z,8.87
2018-08-30T15:49:12.405Z,10.70
2018-08-30T15:51:40.548Z,10.60
2018-08-30T15:54:08.724Z,10.03
2018-08-30T15:56:36.870Z,10.07
2018-08-30T15:59:05.045Z,10.57
2018-08-30T16:01:33.203Z,10.47
2018-08-30T16:04:01.381Z,10.87
2018-08-30T16:06:29.546Z,10.90
2018-08-30T16:08:58.246Z,11.77
2018-08-30T16:11:27.482Z,10.97
2018-08-30T16:13:55.676Z,10.57
2018-08-30T16:16:23.849Z,11.07
2018-08-30T16:18:52.191Z,9.17
2018-08-30T16:21:20.197Z,10.80
2018-08-30T16:23:49.307Z,9.33
2018-08-30T16:26:17.540Z,10.37
2018-08-30T16:28:45.676Z,9.60
2018-08-30T16:31:13.873Z,10.70
2018-08-30T16:33:41.989Z,9.13
2018-08-30T16:36:10.169Z,8.27
2018-08-30T16:38:38.336Z,8.53
2018-08-30T16:41:06.704Z,8.47
2018-08-30T16:43:34.833Z,7.83
2018-08-30T16:46:02.985Z,9.37
2018-08-30T16:48:31.662Z,7.90
2018-08-30T16:50:59.856Z,10.30
2018-08-30T16:53:28.169Z,7.80
2018-08-30T16:55:56.352Z,8.57
2018-08-30T16:58:24.510Z,8.90
2018-08-30T17:00:52.665Z,8.77
2018-08-30T17:03:20.818Z,7.70
2018-08-30T17:05:49.039Z,8.33
2018-08-30T17:08:17.189Z,7.60
2018-08-30T17:10:45.417Z,12.93
2018-08-30T17:13:13.561Z,7.60
2018-08-30T17:15:41.799Z,10.00
2018-08-30T17:18:10.011Z,8.80
2018-08-30T17:20:40.968Z,8.73
2018-08-30T17:23:09.473Z,9.03
2018-08-30T17:25:37.727Z,8.50
2018-08-30T17:28:05.989Z,8.80
2018-08-30T17:30:36.221Z,8.43
2018-08-30T17:33:04.482Z,8.90
2018-08-30T17:35:33.654Z,9.47
2018-08-30T17:38:01.873Z,9.53
2018-08-30T17:40:30.088Z,9.13
2018-08-30T17:42:58.254Z,10.07
2018-08-30T17:45:26.489Z,10.17
2018-08-30T17:47:54.603Z,8.97
2018-08-30T17:50:22.762Z,9.70
2018-08-30T17:52:51.033Z,8.97
2018-08-30T17:55:19.422Z,9.93
2018-08-30T17:57:47.653Z,8.80
2018-08-30T18:00:16.042Z,10.20
2018-08-30T18:02:45.169Z,7.80
2018-08-30T18:05:13.970Z,9.57
2018-08-30T18:07:42.134Z,9.47
2018-08-30T18:10:10.525Z,8.13
2018-08-30T18:12:39.301Z,10.40
2018-08-30T18:15:09.204Z,11.13
2018-08-30T18:17:37.440Z,12.23
2018-08-30T18:20:06.044Z,10.60
2018-08-30T18:22:34.349Z,10.93
2018-08-30T18:25:02.574Z,11.47
2018-08-30T18:27:31.213Z,10.00
2018-08-30T18:30:05.058Z,10.80
2018-08-30T18:32:38.523Z,10.40
2018-08-30T18:35:08.545Z,10.00
2018-08-30T18:37:41.504Z,10.97
2018-08-30T18:40:16.783Z,9.23
2018-08-30T18:42:47.947Z,14.17
2018-08-30T18:45:16.351Z,10.77
2018-08-30T18:47:45.019Z,11.53
2018-08-30T18:50:17.583Z,12.00
2018-08-30T18:52:48.864Z,11.90
2018-08-30T18:55:17.314Z,13.40
2018-08-30T18:57:51.622Z,14.40
2018-08-30T19:00:20.568Z,15.80
2018-08-30T19:02:49.215Z,13.33
2018-08-30T19:05:18.774Z,13.87
2018-08-30T19:07:51.919Z,17.67
2018-08-30T19:10:22.108Z,15.60
2018-08-30T19:12:50.742Z,18.90
2018-08-30T19:15:24.551Z,17.30
2018-08-30T19:17:58.449Z,17.97
2018-08-30T19:20:30.333Z,17.13
2018-08-30T19:23:02.425Z,16.33
2018-08-30T19:25:37.003Z,13.80
2018-08-30T19:28:10.347Z,14.60
2018-08-30T19:30:38.835Z,16.63
2018-08-30T19:33:08.469Z,14.97
2018-08-30T19:35:42.718Z,14.40
2018-08-30T19:38:14.899Z,14.80
2018-08-30T19:40:49.651Z,15.10
2018-08-30T19:43:18.621Z,15.33
2018-08-30T19:45:50.543Z,14.70
2018-08-30T19:48:20.630Z,16.97
2018-08-30T19:50:49.864Z,16.60
2018-08-30T19:53:19.150Z,14.77
2018-08-30T19:55:47.454Z,16.40
2018-08-30T19:58:15.738Z,14.20
2018-08-30T20:00:45.758Z,15.37
2018-08-30T20:03:14.208Z,13.63
2018-08-30T20:05:42.707Z,14.50
2018-08-30T20:08:10.969Z,13.63
2018-08-30T20:10:44.161Z,12.57
2018-08-30T20:13:14.077Z,15.43
2018-08-30T20:15:49.033Z,16.60
2018-08-30T20:18:19.530Z,14.43
2018-08-30T20:20:53.970Z,15.67
2018-08-30T20:23:23.689Z,15.50
2018-08-30T20:25:53.808Z,16.27
2018-08-30T20:28:22.018Z,15.00
2018-08-30T20:30:50.229Z,18.43
2018-08-30T20:33:18.782Z,12.20
2018-08-30T20:35:46.960Z,14.23
2018-08-30T20:38:15.166Z,11.57
2018-08-30T20:40:43.439Z,12.30
2018-08-30T20:43:11.685Z,11.53
2018-08-30T20:45:40.100Z,11.00
2018-08-30T20:48:08.272Z,10.33
2018-08-30T20:50:37.125Z,10.47
2018-08-30T20:53:05.447Z,8.57
2018-08-30T20:55:35.035Z,10.70
2018-08-30T20:58:03.332Z,9.60
2018-08-30T21:00:33.200Z,12.30
2018-08-30T21:03:02.034Z,12.47
2018-08-30T21:05:30.455Z,6.30
2018-08-30T21:07:58.643Z,10.53
2018-08-30T21:10:26.933Z,7.10
2018-08-30T21:12:55.905Z,11.97
2018-08-30T21:15:29.148Z,7.80
2018-08-30T21:18:00.359Z,9.00
2018-08-30T21:20:46.169Z,7.60
2018-08-30T21:23:26.640Z,9.93
2018-08-30T21:32:20.485Z,12.80
2018-08-30T21:35:07.914Z,8.67
2018-08-30T21:40:44.962Z,9.27
2018-08-30T21:43:54.836Z,11.77
2018-08-30T21:46:39.187Z,10.77
2018-08-30T22:05:28.910Z,7.77
2018-08-30T22:50:50.454Z,9.23
2018-08-30T22:53:18.659Z,9.90
2018-08-30T22:55:46.871Z,7.27
2018-08-30T22:58:15.080Z,11.10
2018-08-30T23:00:43.270Z,10.60
2018-08-30T23:03:11.470Z,11.53
2018-08-30T23:05:39.671Z,7.10
2018-08-30T23:08:07.876Z,7.57
2018-08-30T23:10:36.745Z,14.20
2018-08-30T23:13:06.998Z,9.77
2018-08-30T23:15:35.177Z,11.30
2018-08-30T23:18:03.357Z,8.47
2018-08-30T23:20:31.552Z,9.83
2018-08-30T23:23:00.357Z,8.80
2018-08-30T23:25:28.570Z,8.00
2018-08-30T23:27:56.750Z,12.70
2018-08-30T23:30:25.016Z,11.07
2018-08-30T23:32:53.122Z,9.13
2018-08-30T23:35:21.310Z,10.03
2018-08-30T23:37:49.500Z,10.60
2018-08-30T23:40:17.690Z,11.50
2018-08-30T23:42:45.869Z,12.50
2018-08-30T23:45:14.058Z,9.87
2018-08-30T23:47:42.221Z,8.93
2018-08-30T23:50:10.402Z,9.30
2018-08-30T23:52:41.568Z,6.87
2018-08-30T23:55:09.734Z,7.37
2018-08-30T23:57:43.438Z,8.80
